Time;durP1;ratioP1;P1;durP2;ratioP2;P2;SDS_P1;SDS_P2;PMS_P1;PMS_P2;Temp;Humidity;BMP_temperature;BMP_pressure;BME280_temperature;BME280_humidity;BME280_pressure;Samples;Min_cycle;Max_cycle;Signal;HPM_P1;HPM_P2
2023/07/10 00:02:02;;;;;;;;;40.25;33.75;;;;;;;;4977684;28;51118;-59
2023/07/10 00:04:27;;;;;;;;;35.25;31.00;;;;;;;;4988633;28;51129;-58
2023/07/10 00:06:53;;;;;;;;;38.00;33.00;;;;;;;;4982485;28;52116;-58
2023/07/10 00:09:18;;;;;;;;;29.75;26.25;;;;;;;;4993342;28;51055;-59
2023/07/10 00:11:44;;;;;;;;;26.25;25.75;;;;;;;;4987493;28;51109;-58
2023/07/10 00:14:17;;;;;;;;;44.75;38.00;;;;;;;;4980555;28;51050;-58
2023/07/10 00:16:42;;;;;;;;;64.50;51.25;;;;;;;;4986705;28;50922;-58
2023/07/10 00:19:11;;;;;;;;;58.75;47.75;;;;;;;;4974656;28;51088;-59
2023/07/10 00:21:36;;;;;;;;;41.75;34.00;;;;;;;;4986571;28;51084;-58
2023/07/10 00:24:01;;;;;;;;;37.50;33.25;;;;;;;;4984703;28;50935;-58
2023/07/10 00:26:26;;;;;;;;;47.50;39.00;;;;;;;;4975196;28;51207;-58
2023/07/10 00:28:53;;;;;;;;;46.25;38.50;;;;;;;;4976952;28;51189;-58
2023/07/10 00:31:19;;;;;;;;;27.00;26.00;;;;;;;;4973180;28;51040;-59
2023/07/10 00:33:47;;;;;;;;;13.00;9.33;;;;;;;;4976983;28;51197;-58
2023/07/10 00:36:26;;;;;;;;;10.33;10.00;;;;;;;;4984467;28;51914;-58
2023/07/10 00:38:51;;;;;;;;;11.67;11.00;;;;;;;;4986264;28;50980;-58
2023/07/10 00:41:17;;;;;;;;;11.00;9.67;;;;;;;;4993218;28;51325;-58
2023/07/10 00:43:44;;;;;;;;;13.00;12.33;;;;;;;;4993124;28;50938;-59
2023/07/10 00:46:25;;;;;;;;;16.00;15.00;;;;;;;;4978264;28;52807;-59
2023/07/10 00:48:56;;;;;;;;;12.00;11.00;;;;;;;;4981565;28;51003;-59
2023/07/10 00:51:25;;;;;;;;;10.67;9.67;;;;;;;;4983626;28;51008;-58
2023/07/10 00:53:51;;;;;;;;;11.00;10.33;;;;;;;;4976762;28;50975;-58
2023/07/10 00:56:18;;;;;;;;;8.67;8.67;;;;;;;;4977573;28;52004;-59
2023/07/10 00:58:45;;;;;;;;;11.33;10.33;;;;;;;;4973869;28;51262;-59
2023/07/10 01:01:22;;;;;;;;;10.67;8.00;;;;;;;;4984868;28;51379;-58
2023/07/10 01:03:51;;;;;;;;;7.67;7.00;;;;;;;;4975391;28;51240;-58
2023/07/10 01:06:20;;;;;;;;;7.67;7.67;;;;;;;;4973273;28;50986;-58
2023/07/10 01:08:47;;;;;;;;;5.67;5.33;;;;;;;;4987543;28;51463;-59
2023/07/10 01:11:12;;;;;;;;;6.00;5.00;;;;;;;;4991995;28;50980;-58
2023/07/10 01:13:39;;;;;;;;;7.00;6.33;;;;;;;;4989384;28;51283;-58
2023/07/10 01:16:05;;;;;;;;;8.33;8.33;;;;;;;;4973260;28;51833;-58
2023/07/10 01:18:31;;;;;;;;;9.67;8.67;;;;;;;;4972956;28;51240;-58
2023/07/10 01:21:01;;;;;;;;;7.33;6.67;;;;;;;;4983746;28;50948;-58
2023/07/10 01:23:26;;;;;;;;;6.67;6.67;;;;;;;;4986737;28;51053;-58
2023/07/10 01:25:55;;;;;;;;;8.33;8.00;;;;;;;;4992592;28;51922;-58
2023/07/10 01:28:21;;;;;;;;;7.67;7.67;;;;;;;;4982823;28;51005;-58
2023/07/10 01:30:49;;;;;;;;;7.67;6.67;;;;;;;;4992749;28;51040;-58
2023/07/10 01:33:17;;;;;;;;;6.67;6.00;;;;;;;;4985944;28;50979;-58
2023/07/10 01:35:43;;;;;;;;;5.33;5.33;;;;;;;;4973014;28;51928;-59
2023/07/10 01:38:11;;;;;;;;;5.33;5.00;;;;;;;;4983825;28;51120;-58
2023/07/10 01:40:38;;;;;;;;;5.67;5.33;;;;;;;;4991282;28;51034;-59
2023/07/10 01:43:04;;;;;;;;;6.00;4.33;;;;;;;;4991208;28;51182;-58
2023/07/10 01:45:39;;;;;;;;;5.33;4.67;;;;;;;;4972849;28;51894;-58
2023/07/10 01:48:04;;;;;;;;;5.00;5.00;;;;;;;;4973182;28;51071;-57
2023/07/10 01:50:30;;;;;;;;;6.67;5.67;;;;;;;;4973052;28;54306;-58
2023/07/10 01:52:55;;;;;;;;;4.33;4.33;;;;;;;;4981743;28;50916;-58
2023/07/10 01:55:21;;;;;;;;;5.33;5.00;;;;;;;;4981318;28;50904;-58
2023/07/10 01:57:46;;;;;;;;;4.67;4.67;;;;;;;;4989928;28;50939;-59
2023/07/10 02:00:12;;;;;;;;;5.00;4.33;;;;;;;;4981420;28;51098;-57
2023/07/10 02:02:37;;;;;;;;;7.00;6.00;;;;;;;;4975134;28;51395;-58
2023/07/10 02:05:03;;;;;;;;;6.33;6.00;;;;;;;;4972648;28;51268;-59
2023/07/10 02:07:28;;;;;;;;;6.00;5.00;;;;;;;;4988006;28;50879;-59
2023/07/10 02:09:53;;;;;;;;;4.00;4.00;;;;;;;;4992392;28;50890;-59
2023/07/10 02:12:18;;;;;;;;;3.00;3.00;;;;;;;;4987453;28;51356;-59
2023/07/10 02:14:45;;;;;;;;;4.67;4.33;;;;;;;;4976734;28;53700;-59
2023/07/10 02:17:10;;;;;;;;;4.00;4.00;;;;;;;;4976155;28;51082;-59
2023/07/10 02:19:35;;;;;;;;;5.00;5.00;;;;;;;;4975072;28;50923;-59
2023/07/10 02:22:00;;;;;;;;;4.33;4.33;;;;;;;;4988894;28;51126;-61
2023/07/10 02:24:25;;;;;;;;;6.00;5.00;;;;;;;;4992126;28;52204;-59
2023/07/10 02:26:51;;;;;;;;;6.00;6.00;;;;;;;;4990161;28;51154;-59
2023/07/10 02:29:16;;;;;;;;;8.00;8.00;;;;;;;;4978966;28;52419;-58
2023/07/10 02:31:41;;;;;;;;;7.00;6.00;;;;;;;;4978170;28;51056;-58
2023/07/10 02:34:06;;;;;;;;;5.67;5.67;;;;;;;;4993042;28;51129;-58
2023/07/10 02:36:32;;;;;;;;;6.00;5.33;;;;;;;;4994056;28;51027;-58
2023/07/10 02:38:58;;;;;;;;;5.67;5.67;;;;;;;;4995895;28;50990;-58
2023/07/10 02:41:23;;;;;;;;;4.33;4.33;;;;;;;;4995490;28;51349;-59
2023/07/10 02:43:48;;;;;;;;;6.00;6.00;;;;;;;;4992399;28;52175;-58
2023/07/10 02:46:13;;;;;;;;;6.00;6.00;;;;;;;;4974383;28;51121;-58
2023/07/10 02:48:39;;;;;;;;;5.67;5.33;;;;;;;;4988363;28;51010;-58
2023/07/10 02:51:04;;;;;;;;;6.33;6.00;;;;;;;;4987552;28;51093;-58
2023/07/10 02:53:30;;;;;;;;;7.67;6.00;;;;;;;;4975183;28;52328;-60
2023/07/10 02:55:55;;;;;;;;;6.67;5.67;;;;;;;;4994165;28;50927;-59
2023/07/10 02:58:20;;;;;;;;;9.00;8.00;;;;;;;;4994018;28;50792;-59
2023/07/10 03:00:53;;;;;;;;;8.00;7.00;;;;;;;;4988896;28;51357;-58
2023/07/10 03:03:18;;;;;;;;;6.00;5.33;;;;;;;;4975432;28;52584;-58
2023/07/10 03:05:51;;;;;;;;;6.00;6.00;;;;;;;;4989006;28;50998;-58
2023/07/10 03:08:17;;;;;;;;;5.33;5.33;;;;;;;;4993896;28;50879;-58
2023/07/10 03:10:42;;;;;;;;;2.00;2.00;;;;;;;;4995079;28;51008;-58
2023/07/10 03:13:07;;;;;;;;;5.33;5.33;;;;;;;;4994706;28;51115;-59
2023/07/10 03:15:32;;;;;;;;;5.33;4.33;;;;;;;;4994317;28;51042;-59
2023/07/10 03:17:57;;;;;;;;;4.00;4.00;;;;;;;;4992852;28;50979;-58
2023/07/10 03:20:22;;;;;;;;;5.00;5.00;;;;;;;;4994871;28;51399;-58
2023/07/10 03:22:49;;;;;;;;;7.00;6.00;;;;;;;;4976926;28;51724;-58
2023/07/10 03:25:14;;;;;;;;;6.00;5.00;;;;;;;;4974746;28;50978;-58
2023/07/10 03:27:39;;;;;;;;;5.00;5.00;;;;;;;;4982145;28;51131;-59
2023/07/10 03:30:05;;;;;;;;;5.67;5.33;;;;;;;;4988623;28;51092;-58
2023/07/10 03:32:30;;;;;;;;;6.00;5.00;;;;;;;;4986870;28;51856;-58
2023/07/10 03:34:57;;;;;;;;;5.00;4.33;;;;;;;;4976345;28;50853;-59
2023/07/10 03:37:22;;;;;;;;;4.33;4.33;;;;;;;;4974619;28;51019;-58
2023/07/10 03:39:47;;;;;;;;;4.00;4.00;;;;;;;;4980291;28;50933;-58
2023/07/10 03:42:12;;;;;;;;;5.00;5.00;;;;;;;;4973346;28;51007;-58
2023/07/10 03:44:38;;;;;;;;;5.67;5.67;;;;;;;;4991250;28;51110;-58
2023/07/10 03:47:03;;;;;;;;;5.00;4.00;;;;;;;;4994464;28;51390;-58
2023/07/10 03:49:29;;;;;;;;;5.00;4.00;;;;;;;;4977890;28;51087;-58
2023/07/10 03:51:54;;;;;;;;;6.67;5.00;;;;;;;;4974550;28;51148;-58
2023/07/10 03:54:19;;;;;;;;;4.67;4.00;;;;;;;;4977646;28;51210;-58
2023/07/10 03:56:44;;;;;;;;;3.00;3.00;;;;;;;;4975017;28;51260;-58
2023/07/10 03:59:09;;;;;;;;;5.00;5.00;;;;;;;;4975141;28;51215;-58
2023/07/10 04:01:35;;;;;;;;;5.33;5.33;;;;;;;;4988522;28;51043;-58
2023/07/10 04:04:00;;;;;;;;;5.00;5.00;;;;;;;;4992414;28;51047;-59
2023/07/10 04:06:26;;;;;;;;;6.00;5.33;;;;;;;;4994145;28;51065;-57
2023/07/10 04:08:51;;;;;;;;;5.00;4.33;;;;;;;;4993461;28;51215;-59
2023/07/10 04:11:21;;;;;;;;;5.67;5.00;;;;;;;;4994038;28;50941;-59
2023/07/10 04:13:47;;;;;;;;;5.33;5.33;;;;;;;;4992788;28;51008;-58
2023/07/10 04:16:14;;;;;;;;;7.00;6.00;;;;;;;;4986005;28;51129;-58
2023/07/10 04:18:40;;;;;;;;;5.67;5.67;;;;;;;;4986780;28;51225;-58
2023/07/10 04:21:08;;;;;;;;;6.00;6.00;;;;;;;;4980882;28;51690;-58
2023/07/10 04:23:34;;;;;;;;;4.67;4.67;;;;;;;;4978870;28;50995;-58
2023/07/10 04:25:59;;;;;;;;;5.00;4.00;;;;;;;;4974320;28;51177;-58
2023/07/10 04:28:24;;;;;;;;;5.00;5.00;;;;;;;;4988125;28;51144;-58
2023/07/10 04:30:50;;;;;;;;;6.33;5.67;;;;;;;;4981314;28;51760;-58
2023/07/10 04:33:16;;;;;;;;;4.67;4.00;;;;;;;;4975347;28;50963;-58
2023/07/10 04:35:41;;;;;;;;;5.67;5.00;;;;;;;;4973976;28;51008;-58
2023/07/10 04:38:07;;;;;;;;;6.00;6.00;;;;;;;;4979217;28;51150;-58
2023/07/10 04:40:33;;;;;;;;;6.00;5.00;;;;;;;;4973525;28;51273;-58
2023/07/10 04:42:58;;;;;;;;;5.00;5.00;;;;;;;;4975297;28;51030;-59
2023/07/10 04:45:23;;;;;;;;;4.00;4.00;;;;;;;;4976306;28;51248;-58
2023/07/10 04:47:49;;;;;;;;;5.00;5.00;;;;;;;;4978937;28;51256;-58
2023/07/10 04:50:14;;;;;;;;;5.00;4.00;;;;;;;;4980021;28;51901;-58
2023/07/10 04:52:39;;;;;;;;;5.00;5.00;;;;;;;;4991157;28;51099;-58
2023/07/10 04:55:04;;;;;;;;;6.00;5.33;;;;;;;;4972989;28;51450;-58
2023/07/10 04:57:30;;;;;;;;;5.00;4.00;;;;;;;;4974284;28;51165;-58
2023/07/10 04:59:55;;;;;;;;;4.33;4.33;;;;;;;;4992640;28;51784;-59
2023/07/10 05:02:20;;;;;;;;;6.33;6.33;;;;;;;;4990175;28;51085;-58
2023/07/10 05:04:45;;;;;;;;;4.00;4.00;;;;;;;;4981492;28;51235;-58
2023/07/10 05:07:10;;;;;;;;;6.67;6.67;;;;;;;;4991668;28;50979;-58
2023/07/10 05:09:36;;;;;;;;;7.00;6.00;;;;;;;;4980417;28;51685;-58
2023/07/10 05:12:01;;;;;;;;;6.00;6.00;;;;;;;;4977422;28;51193;-58
2023/07/10 05:14:26;;;;;;;;;3.67;3.67;;;;;;;;4981458;28;50992;-58
2023/07/10 05:16:51;;;;;;;;;5.00;5.00;;;;;;;;4973367;28;50872;-58
2023/07/10 05:19:17;;;;;;;;;4.00;4.00;;;;;;;;4985060;28;50875;-57
2023/07/10 05:21:42;;;;;;;;;4.00;4.00;;;;;;;;4978400;28;50934;-57
2023/07/10 05:24:08;;;;;;;;;5.67;5.67;;;;;;;;4982739;28;51111;-57
2023/07/10 05:26:33;;;;;;;;;4.00;4.00;;;;;;;;4974911;28;51286;-59
2023/07/10 05:28:58;;;;;;;;;9.00;6.00;;;;;;;;4988809;28;51865;-58
2023/07/10 05:31:24;;;;;;;;;5.33;5.33;;;;;;;;4991758;28;51085;-58
2023/07/10 05:33:49;;;;;;;;;7.67;7.00;;;;;;;;4977082;28;51080;-57
2023/07/10 05:36:16;;;;;;;;;5.00;5.00;;;;;;;;4975863;28;51655;-57
2023/07/10 05:38:41;;;;;;;;;5.00;5.00;;;;;;;;4979616;28;52224;-57
2023/07/10 05:41:06;;;;;;;;;6.00;6.00;;;;;;;;4992631;28;50872;-58
2023/07/10 05:43:32;;;;;;;;;5.00;5.00;;;;;;;;4992668;28;50956;-58
2023/07/10 05:45:58;;;;;;;;;5.00;4.00;;;;;;;;4992764;28;50845;-58
2023/07/10 05:48:23;;;;;;;;;4.33;3.67;;;;;;;;4990149;28;51986;-58
2023/07/10 05:50:48;;;;;;;;;4.33;3.33;;;;;;;;4973125;28;50938;-58
2023/07/10 05:53:14;;;;;;;;;7.00;5.00;;;;;;;;4972821;28;50805;-59
2023/07/10 05:55:47;;;;;;;;;3.00;3.00;;;;;;;;4973031;28;51221;-58
2023/07/10 05:58:13;;;;;;;;;2.00;2.00;;;;;;;;4984228;28;51865;-59
2023/07/10 06:00:38;;;;;;;;;6.00;5.00;;;;;;;;4982444;28;51057;-58
2023/07/10 06:03:03;;;;;;;;;6.00;5.33;;;;;;;;4988808;28;51006;-58
2023/07/10 06:05:29;;;;;;;;;4.00;3.00;;;;;;;;4993341;28;51379;-58
2023/07/10 06:07:54;;;;;;;;;4.00;3.00;;;;;;;;4994901;28;51678;-58
2023/07/10 06:10:19;;;;;;;;;3.67;3.00;;;;;;;;4995474;28;50950;-58
2023/07/10 06:12:44;;;;;;;;;5.00;4.00;;;;;;;;4981719;28;50913;-58
2023/07/10 06:15:10;;;;;;;;;3.67;3.67;;;;;;;;4995165;28;51022;-57
2023/07/10 06:17:35;;;;;;;;;4.00;4.00;;;;;;;;4998812;28;51089;-57
2023/07/10 06:20:00;;;;;;;;;4.33;4.00;;;;;;;;5001440;28;51081;-58
2023/07/10 06:22:25;;;;;;;;;3.00;3.00;;;;;;;;5001871;28;51134;-58
2023/07/10 06:24:50;;;;;;;;;2.00;2.00;;;;;;;;5000628;28;51365;-58
2023/07/10 06:27:16;;;;;;;;;3.33;3.00;;;;;;;;4989218;28;51453;-58
2023/07/10 06:29:41;;;;;;;;;2.00;1.00;;;;;;;;4986579;28;50903;-58
2023/07/10 06:32:06;;;;;;;;;3.33;2.00;;;;;;;;4979071;28;51100;-58
2023/07/10 06:34:32;;;;;;;;;2.67;2.00;;;;;;;;4975570;28;50994;-58
2023/07/10 06:36:57;;;;;;;;;3.67;3.33;;;;;;;;4974652;28;51959;-58
2023/07/10 06:39:22;;;;;;;;;2.33;2.33;;;;;;;;4974235;28;51095;-58
2023/07/10 06:41:47;;;;;;;;;1.00;1.00;;;;;;;;4975485;28;51061;-58
2023/07/10 06:44:12;;;;;;;;;3.00;2.67;;;;;;;;4975563;28;50994;-58
2023/07/10 06:46:38;;;;;;;;;2.00;2.00;;;;;;;;4975375;28;51974;-58
2023/07/10 06:49:03;;;;;;;;;3.33;2.67;;;;;;;;5000709;28;50949;-58
2023/07/10 06:51:28;;;;;;;;;4.00;3.00;;;;;;;;4978376;28;51112;-58
2023/07/10 06:53:53;;;;;;;;;4.33;4.00;;;;;;;;4981743;28;51454;-58
2023/07/10 06:56:19;;;;;;;;;3.33;3.33;;;;;;;;4978363;28;51186;-58
2023/07/10 06:58:44;;;;;;;;;4.00;3.67;;;;;;;;4978209;28;51067;-58
2023/07/10 07:01:09;;;;;;;;;4.00;3.00;;;;;;;;4995237;28;51014;-58
2023/07/10 07:03:34;;;;;;;;;3.00;3.00;;;;;;;;4985297;28;51106;-58
2023/07/10 07:06:00;;;;;;;;;2.00;2.00;;;;;;;;4991274;28;52009;-58
2023/07/10 07:08:25;;;;;;;;;2.00;2.00;;;;;;;;4994614;28;51033;-58
2023/07/10 07:10:52;;;;;;;;;3.00;3.00;;;;;;;;4995093;28;51095;-57
2023/07/10 07:13:17;;;;;;;;;4.67;4.00;;;;;;;;4994844;28;50891;-58
2023/07/10 07:15:42;;;;;;;;;4.33;4.00;;;;;;;;4993632;28;51776;-58
2023/07/10 07:18:08;;;;;;;;;4.67;4.00;;;;;;;;4994702;28;50987;-58
2023/07/10 07:20:33;;;;;;;;;3.67;3.00;;;;;;;;4993741;28;50864;-58
2023/07/10 07:22:59;;;;;;;;;2.67;2.67;;;;;;;;4994565;28;50971;-58
2023/07/10 07:25:24;;;;;;;;;4.33;3.33;;;;;;;;4982758;28;50945;-58
2023/07/10 07:27:50;;;;;;;;;3.00;3.00;;;;;;;;4983812;28;51275;-58
2023/07/10 07:30:15;;;;;;;;;3.00;3.00;;;;;;;;4984588;28;51108;-58
2023/07/10 07:32:40;;;;;;;;;3.67;3.00;;;;;;;;4994142;28;51042;-58
2023/07/10 07:35:06;;;;;;;;;4.67;4.00;;;;;;;;4992179;28;52574;-58
2023/07/10 07:37:31;;;;;;;;;5.00;4.00;;;;;;;;4982635;28;50946;-58
2023/07/10 07:39:58;;;;;;;;;3.33;3.00;;;;;;;;4994193;28;51001;-58
2023/07/10 07:42:24;;;;;;;;;3.00;2.33;;;;;;;;4994536;28;51308;-57
2023/07/10 07:44:49;;;;;;;;;1.33;1.00;;;;;;;;4993273;28;51696;-58
2023/07/10 07:47:15;;;;;;;;;2.00;2.00;;;;;;;;4994091;28;50899;-58
2023/07/10 07:49:40;;;;;;;;;2.00;1.67;;;;;;;;4994012;28;51152;-58
2023/07/10 07:52:06;;;;;;;;;1.00;1.00;;;;;;;;4980591;28;51073;-58
2023/07/10 07:54:31;;;;;;;;;2.00;1.00;;;;;;;;4983302;28;51227;-58
2023/07/10 07:56:56;;;;;;;;;2.00;1.00;;;;;;;;4994279;28;51466;-58
2023/07/10 07:59:22;;;;;;;;;2.00;2.00;;;;;;;;4993499;28;51085;-58
2023/07/10 08:01:48;;;;;;;;;0.00;0.00;;;;;;;;4988574;28;52084;-58
2023/07/10 08:04:13;;;;;;;;;0.33;0.33;;;;;;;;4974129;28;51423;-58
2023/07/10 08:06:38;;;;;;;;;1.00;1.00;;;;;;;;4973969;28;51075;-58
2023/07/10 08:09:03;;;;;;;;;0.00;0.00;;;;;;;;4990463;28;50895;-57
2023/07/10 08:11:29;;;;;;;;;2.00;1.00;;;;;;;;4994355;28;51358;-58
2023/07/10 08:13:54;;;;;;;;;1.00;1.00;;;;;;;;4993447;28;51625;-58
2023/07/10 08:16:19;;;;;;;;;2.00;1.00;;;;;;;;4992498;28;51085;-58
2023/07/10 08:18:44;;;;;;;;;4.67;4.67;;;;;;;;4993700;28;51164;-58
2023/07/10 08:21:11;;;;;;;;;1.33;0.67;;;;;;;;4985094;28;50877;-58
2023/07/10 08:23:36;;;;;;;;;1.67;1.00;;;;;;;;4973595;28;51062;-58
2023/07/10 08:26:02;;;;;;;;;2.00;2.00;;;;;;;;4984008;28;51055;-58
2023/07/10 08:28:27;;;;;;;;;3.00;2.00;;;;;;;;4975404;28;50935;-58
2023/07/10 08:30:52;;;;;;;;;3.00;3.00;;;;;;;;4981792;28;51183;-57
2023/07/10 08:33:18;;;;;;;;;2.33;2.33;;;;;;;;4976497;28;51797;-58
2023/07/10 08:35:43;;;;;;;;;1.67;1.67;;;;;;;;4973930;28;51092;-57
2023/07/10 08:38:08;;;;;;;;;1.33;0.67;;;;;;;;4973427;28;50977;-57
2023/07/10 08:40:35;;;;;;;;;1.67;1.67;;;;;;;;4984416;28;51150;-57
2023/07/10 08:43:04;;;;;;;;;4.00;3.67;;;;;;;;4993170;28;52204;-57
2023/07/10 08:45:34;;;;;;;;;0.33;0.33;;;;;;;;4993150;28;51304;-58
2023/07/10 08:48:14;;;;;;;;;0.33;0.33;;;;;;;;4992080;28;51074;-58
2023/07/10 08:50:40;;;;;;;;;3.00;2.00;;;;;;;;4993291;28;51404;-58
2023/07/10 08:53:12;;;;;;;;;1.67;1.00;;;;;;;;4993072;28;52011;-59
2023/07/10 08:55:43;;;;;;;;;2.33;2.33;;;;;;;;4985289;28;50873;-57
2023/07/10 08:58:19;;;;;;;;;2.00;1.00;;;;;;;;4993006;28;52463;-59
2023/07/10 09:00:46;;;;;;;;;1.33;1.33;;;;;;;;4991900;28;51135;-57
2023/07/10 09:03:30;;;;;;;;;2.00;1.00;;;;;;;;4975833;28;51986;-58
2023/07/10 09:05:57;;;;;;;;;2.67;2.00;;;;;;;;4972966;28;51089;-58
2023/07/10 09:08:22;;;;;;;;;1.00;1.00;;;;;;;;4978455;28;50908;-57
2023/07/10 09:10:51;;;;;;;;;0.00;0.00;;;;;;;;4992822;28;50852;-58
2023/07/10 09:13:18;;;;;;;;;1.00;1.00;;;;;;;;4979920;28;52603;-58
2023/07/10 09:15:55;;;;;;;;;1.00;0.67;;;;;;;;4990696;28;51201;-58
2023/07/10 09:18:20;;;;;;;;;7.00;7.00;;;;;;;;4991971;28;51248;-58
2023/07/10 09:20:49;;;;;;;;;1.00;1.00;;;;;;;;4987773;28;50938;-58
2023/07/10 09:23:17;;;;;;;;;1.00;1.00;;;;;;;;4973006;28;51287;-57
2023/07/10 09:25:43;;;;;;;;;0.33;0.00;;;;;;;;4972473;28;51078;-58
2023/07/10 09:28:10;;;;;;;;;1.00;1.00;;;;;;;;4984231;28;51017;-58
2023/07/10 09:30:59;;;;;;;;;0.67;0.67;;;;;;;;4978122;28;51495;-59
2023/07/10 09:33:35;;;;;;;;;1.00;0.00;;;;;;;;4970499;28;52032;-59
2023/07/10 09:36:00;;;;;;;;;10.00;9.00;;;;;;;;4972623;28;50953;-58
2023/07/10 09:38:26;;;;;;;;;1.00;1.00;;;;;;;;4973956;28;51055;-58
2023/07/10 09:40:51;;;;;;;;;2.67;2.00;;;;;;;;4976599;28;51169;-58
2023/07/10 09:43:18;;;;;;;;;1.00;1.00;;;;;;;;4974224;28;52581;-58
2023/07/10 09:45:47;;;;;;;;;1.00;1.00;;;;;;;;4975799;28;51036;-58
2023/07/10 09:48:21;;;;;;;;;0.67;0.67;;;;;;;;4984051;28;51070;-58
2023/07/10 09:50:49;;;;;;;;;1.67;1.33;;;;;;;;4995905;28;50823;-58
2023/07/10 09:53:27;;;;;;;;;1.00;1.00;;;;;;;;4995327;28;53029;-58
2023/07/10 09:55:52;;;;;;;;;3.00;2.00;;;;;;;;4990414;28;51053;-58
2023/07/10 09:58:17;;;;;;;;;1.00;0.33;;;;;;;;4985003;28;51152;-58
2023/07/10 10:00:43;;;;;;;;;1.00;1.00;;;;;;;;4979584;28;50959;-58
2023/07/10 10:03:25;;;;;;;;;2.67;2.00;;;;;;;;4981793;28;52016;-57
2023/07/10 10:05:54;;;;;;;;;1.00;1.00;;;;;;;;4995177;28;51080;-58
2023/07/10 10:08:21;;;;;;;;;4.33;2.67;;;;;;;;4995345;28;51146;-58
2023/07/10 10:10:58;;;;;;;;;1.00;1.00;;;;;;;;4995299;28;50836;-57
2023/07/10 10:13:26;;;;;;;;;2.67;2.67;;;;;;;;4995457;28;51904;-58
2023/07/10 10:15:54;;;;;;;;;1.67;1.67;;;;;;;;4995431;28;51013;-57
2023/07/10 10:18:38;;;;;;;;;0.00;0.00;;;;;;;;4982294;28;51085;-58
2023/07/10 10:21:04;;;;;;;;;0.67;0.67;;;;;;;;4981384;28;51119;-57
2023/07/10 10:23:31;;;;;;;;;2.00;2.00;;;;;;;;4974802;28;51277;-58
2023/07/10 10:26:08;;;;;;;;;3.00;2.00;;;;;;;;4975317;28;51025;-58
2023/07/10 10:28:44;;;;;;;;;1.00;1.00;;;;;;;;4989844;28;51312;-57
2023/07/10 10:31:10;;;;;;;;;1.00;1.00;;;;;;;;4982573;28;51072;-57
2023/07/10 10:33:38;;;;;;;;;1.00;0.00;;;;;;;;4976777;28;51018;-59
2023/07/10 10:36:15;;;;;;;;;7.00;6.00;;;;;;;;4975388;28;51029;-58
2023/07/10 10:38:54;;;;;;;;;1.00;1.00;;;;;;;;4993535;28;51094;-58
2023/07/10 10:41:38;;;;;;;;;4.00;4.00;;;;;;;;4994843;28;51108;-58
2023/07/10 10:44:23;;;;;;;;;1.33;1.33;;;;;;;;4994546;28;51825;-59
2023/07/10 10:46:55;;;;;;;;;2.00;2.00;;;;;;;;4983893;28;51079;-57
2023/07/10 10:49:38;;;;;;;;;2.67;2.00;;;;;;;;4994438;28;51104;-59
2023/07/10 10:52:19;;;;;;;;;1.00;1.00;;;;;;;;4981496;28;51070;-58
2023/07/10 10:55:07;;;;;;;;;3.00;3.00;;;;;;;;4992880;28;52891;-57
2023/07/10 10:57:37;;;;;;;;;3.00;2.00;;;;;;;;4988226;28;51132;-58
2023/07/10 11:00:11;;;;;;;;;4.00;4.00;;;;;;;;4974563;28;51052;-58
2023/07/10 11:02:48;;;;;;;;;2.67;2.33;;;;;;;;4985181;28;50910;-57
2023/07/10 11:05:16;;;;;;;;;3.00;2.67;;;;;;;;4974120;28;51764;-57
2023/07/10 11:07:42;;;;;;;;;2.67;2.67;;;;;;;;4974502;28;50941;-58
2023/07/10 11:10:13;;;;;;;;;2.00;2.00;;;;;;;;4991473;28;50986;-58
2023/07/10 11:12:38;;;;;;;;;2.00;2.00;;;;;;;;4994182;28;50908;-58
2023/07/10 11:15:13;;;;;;;;;1.00;1.00;;;;;;;;4992305;28;51972;-57
2023/07/10 11:17:38;;;;;;;;;1.67;1.67;;;;;;;;4994826;28;51010;-58
2023/07/10 11:20:04;;;;;;;;;1.00;1.00;;;;;;;;4988435;28;51336;-57
2023/07/10 11:22:35;;;;;;;;;0.00;0.00;;;;;;;;4974797;28;50908;-58
2023/07/10 11:25:02;;;;;;;;;1.00;1.00;;;;;;;;4977896;28;51741;-58
2023/07/10 11:27:30;;;;;;;;;1.67;0.00;;;;;;;;4981443;28;50868;-58
2023/07/10 11:29:56;;;;;;;;;1.67;1.00;;;;;;;;4984043;28;51066;-58
2023/07/10 11:32:23;;;;;;;;;1.00;1.00;;;;;;;;4987802;28;51378;-58
2023/07/10 11:34:50;;;;;;;;;2.00;2.00;;;;;;;;4974311;28;51853;-58
2023/07/10 11:37:35;;;;;;;;;1.67;1.00;;;;;;;;4972777;28;50945;-58
2023/07/10 11:40:19;;;;;;;;;1.67;1.33;;;;;;;;4973092;28;51097;-58
2023/07/10 11:42:45;;;;;;;;;2.00;1.00;;;;;;;;4976634;28;51473;-58
2023/07/10 11:45:12;;;;;;;;;1.33;1.33;;;;;;;;4983935;28;51115;-57
2023/07/10 11:47:38;;;;;;;;;1.00;0.33;;;;;;;;4974239;28;50906;-58
2023/07/10 11:50:03;;;;;;;;;4.00;3.67;;;;;;;;4974379;28;50897;-58
2023/07/10 11:52:29;;;;;;;;;1.00;1.00;;;;;;;;4983194;28;50900;-58
2023/07/10 11:54:54;;;;;;;;;4.00;4.00;;;;;;;;4993595;28;51658;-57
2023/07/10 11:57:24;;;;;;;;;1.50;1.50;;;;;;;;4993934;28;51052;-58
2023/07/10 11:59:52;;;;;;;;;0.00;0.00;;;;;;;;4980351;28;51148;-59
2023/07/10 12:02:17;;;;;;;;;0.67;0.67;;;;;;;;4992621;28;50955;-59
2023/07/10 12:04:42;;;;;;;;;4.00;2.00;;;;;;;;4993333;28;51680;-58
2023/07/10 12:07:10;;;;;;;;;0.00;0.00;;;;;;;;4993300;28;50983;-58
2023/07/10 12:09:35;;;;;;;;;2.67;2.67;;;;;;;;4993445;28;51100;-58
2023/07/10 12:12:01;;;;;;;;;1.00;0.33;;;;;;;;4993737;28;51057;-58
2023/07/10 12:14:27;;;;;;;;;2.00;2.00;;;;;;;;4989600;28;53577;-57
2023/07/10 12:17:00;;;;;;;;;1.00;1.00;;;;;;;;4976700;28;51051;-57
2023/07/10 12:19:26;;;;;;;;;1.33;0.67;;;;;;;;4989143;28;51074;-58
2023/07/10 12:21:52;;;;;;;;;1.67;1.67;;;;;;;;4983654;28;51364;-58
2023/07/10 12:24:17;;;;;;;;;0.00;0.00;;;;;;;;4973344;28;51769;-58
2023/07/10 12:26:53;;;;;;;;;0.00;0.00;;;;;;;;5045977;28;50911;-57
2023/07/10 12:29:18;;;;;;;;;0.33;0.33;;;;;;;;5048494;28;51136;-56
2023/07/10 12:31:44;;;;;;;;;1.00;1.00;;;;;;;;5049054;28;51295;-58
2023/07/10 12:34:24;;;;;;;;;1.00;1.00;;;;;;;;5035058;28;51823;-59
2023/07/10 12:36:50;;;;;;;;;0.67;0.00;;;;;;;;5048973;28;50886;-57
2023/07/10 12:39:15;;;;;;;;;0.00;0.00;;;;;;;;5048794;28;51155;-58
2023/07/10 12:41:45;;;;;;;;;0.00;0.00;;;;;;;;5049314;28;51158;-58
2023/07/10 12:44:36;;;;;;;;;1.00;1.00;;;;;;;;5045942;28;54223;-58
2023/07/10 12:47:05;;;;;;;;;2.00;2.00;;;;;;;;5048332;28;51109;-58
2023/07/10 12:49:31;;;;;;;;;2.00;2.00;;;;;;;;5037376;28;51105;-57
2023/07/10 12:51:58;;;;;;;;;1.67;1.00;;;;;;;;5041431;28;51107;-57
2023/07/10 12:54:25;;;;;;;;;0.33;0.33;;;;;;;;5048401;28;52316;-58
2023/07/10 12:56:53;;;;;;;;;3.00;2.33;;;;;;;;5048497;28;51189;-58
2023/07/10 12:59:25;;;;;;;;;1.00;0.00;;;;;;;;5048566;28;51090;-58
2023/07/10 13:01:52;;;;;;;;;1.00;1.00;;;;;;;;5047408;28;51699;-58
2023/07/10 13:04:20;;;;;;;;;1.00;1.00;;;;;;;;5048271;28;50985;-58
2023/07/10 13:06:45;;;;;;;;;5.00;3.67;;;;;;;;5047377;28;50998;-58
2023/07/10 13:09:19;;;;;;;;;1.00;1.00;;;;;;;;5048340;28;50917;-58
2023/07/10 13:11:44;;;;;;;;;0.33;0.33;;;;;;;;5049085;28;51167;-58
2023/07/10 13:14:21;;;;;;;;;1.00;1.00;;;;;;;;5046732;28;51709;-57
2023/07/10 13:16:47;;;;;;;;;1.00;1.00;;;;;;;;5048726;28;51177;-57
2023/07/10 13:19:12;;;;;;;;;2.00;1.00;;;;;;;;5047939;28;51005;-58
2023/07/10 13:21:37;;;;;;;;;1.00;1.00;;;;;;;;5047426;28;50950;-58
2023/07/10 13:24:03;;;;;;;;;2.00;1.00;;;;;;;;5048133;28;52529;-58
2023/07/10 13:26:28;;;;;;;;;1.67;1.67;;;;;;;;5046096;28;51092;-57
2023/07/10 13:28:55;;;;;;;;;0.33;0.00;;;;;;;;5047200;28;51183;-58
2023/07/10 13:31:23;;;;;;;;;1.33;1.33;;;;;;;;5048163;28;51072;-58
2023/07/10 13:33:49;;;;;;;;;1.33;1.00;;;;;;;;5047968;28;51314;-59
2023/07/10 13:36:18;;;;;;;;;1.00;1.00;;;;;;;;5044053;28;51147;-58
2023/07/10 13:38:44;;;;;;;;;1.00;1.00;;;;;;;;5034817;28;50932;-59
2023/07/10 13:41:14;;;;;;;;;2.33;2.00;;;;;;;;5020744;28;51333;-59
2023/07/10 13:43:39;;;;;;;;;2.00;2.00;;;;;;;;5034096;28;52846;-57
2023/07/10 13:46:14;;;;;;;;;0.33;0.33;;;;;;;;5032898;28;50946;-57
2023/07/10 13:48:39;;;;;;;;;1.33;1.33;;;;;;;;5033121;28;51145;-58
2023/07/10 13:51:05;;;;;;;;;1.33;1.00;;;;;;;;5032672;28;51022;-58
2023/07/10 13:53:30;;;;;;;;;2.00;1.00;;;;;;;;5034207;28;50904;-58
2023/07/10 13:55:55;;;;;;;;;5.00;3.33;;;;;;;;5034425;28;51063;-57
2023/07/10 13:58:24;;;;;;;;;1.00;1.00;;;;;;;;5020522;28;51175;-58
2023/07/10 14:00:51;;;;;;;;;2.00;1.00;;;;;;;;5034454;28;51335;-58
2023/07/10 14:03:17;;;;;;;;;2.67;2.67;;;;;;;;5034397;28;51294;-58
2023/07/10 14:05:43;;;;;;;;;4.67;4.00;;;;;;;;5034028;28;50933;-57
2023/07/10 14:08:21;;;;;;;;;0.33;0.00;;;;;;;;5031824;28;50982;-58
2023/07/10 14:10:46;;;;;;;;;1.67;1.67;;;;;;;;5030248;28;51251;-59
2023/07/10 14:13:12;;;;;;;;;1.67;1.00;;;;;;;;5033816;28;52018;-58
2023/07/10 14:15:41;;;;;;;;;0.33;0.33;;;;;;;;5032301;28;51032;-58
2023/07/10 14:18:14;;;;;;;;;1.00;0.00;;;;;;;;5034261;28;51042;-58
2023/07/10 14:20:39;;;;;;;;;2.67;2.00;;;;;;;;5025118;28;50927;-58
2023/07/10 14:23:14;;;;;;;;;1.33;1.00;;;;;;;;5034006;28;50917;-58
2023/07/10 14:25:40;;;;;;;;;1.00;1.00;;;;;;;;5033736;28;51296;-58
2023/07/10 14:28:09;;;;;;;;;2.67;2.00;;;;;;;;5033793;28;50900;-58
2023/07/10 14:30:34;;;;;;;;;1.00;1.00;;;;;;;;5033469;28;50937;-58
2023/07/10 14:32:59;;;;;;;;;0.67;0.67;;;;;;;;5033567;28;51859;-58
2023/07/10 14:35:25;;;;;;;;;3.00;3.00;;;;;;;;5034086;28;50993;-59
2023/07/10 14:37:50;;;;;;;;;3.67;2.00;;;;;;;;5033443;28;50997;-57
2023/07/10 14:40:17;;;;;;;;;3.00;3.00;;;;;;;;5034111;28;51062;-57
2023/07/10 14:42:42;;;;;;;;;1.00;0.00;;;;;;;;5032247;28;52957;-58